sensor_id;sensor_type;location;lat;lon;timestamp;temperature;humidity
6956;DHT22;50345;51.136;16.886;2023-05-10T00:00:40;11.30;55.00
6956;DHT22;50345;51.136;16.886;2023-05-10T00:03:06;11.30;55.20
6956;DHT22;50345;51.136;16.886;2023-05-10T00:05:32;11.30;55.60
6956;DHT22;50345;51.136;16.886;2023-05-10T00:07:57;11.20;55.70
6956;DHT22;50345;51.136;16.886;2023-05-10T00:10:23;11.20;56.00
6956;DHT22;50345;51.136;16.886;2023-05-10T00:12:48;11.10;61.10
6956;DHT22;50345;51.136;16.886;2023-05-10T00:15:14;11.00;58.90
6956;DHT22;50345;51.136;16.886;2023-05-10T00:17:40;11.10;56.80
6956;DHT22;50345;51.136;16.886;2023-05-10T00:20:06;11.00;57.20
6956;DHT22;50345;51.136;16.886;2023-05-10T00:22:32;11.00;57.60
6956;DHT22;50345;51.136;16.886;2023-05-10T00:24:58;10.90;58.00
6956;DHT22;50345;51.136;16.886;2023-05-10T00:27:24;10.90;58.40
6956;DHT22;50345;51.136;16.886;2023-05-10T00:29:49;10.80;59.00
6956;DHT22;50345;51.136;16.886;2023-05-10T00:32:15;10.80;59.50
6956;DHT22;50345;51.136;16.886;2023-05-10T00:34:41;10.80;60.20
6956;DHT22;50345;51.136;16.886;2023-05-10T00:37:07;10.70;60.80
6956;DHT22;50345;51.136;16.886;2023-05-10T00:39:32;10.70;61.60
6956;DHT22;50345;51.136;16.886;2023-05-10T00:41:58;10.70;62.50
6956;DHT22;50345;51.136;16.886;2023-05-10T00:44:25;10.70;63.70
6956;DHT22;50345;51.136;16.886;2023-05-10T00:46:51;10.70;64.70
6956;DHT22;50345;51.136;16.886;2023-05-10T00:49:23;10.60;66.60
6956;DHT22;50345;51.136;16.886;2023-05-10T00:51:56;10.60;67.30
6956;DHT22;50345;51.136;16.886;2023-05-10T00:54:22;10.50;68.90
6956;DHT22;50345;51.136;16.886;2023-05-10T00:56:48;10.50;70.10
6956;DHT22;50345;51.136;16.886;2023-05-10T00:59:18;10.50;72.20
6956;DHT22;50345;51.136;16.886;2023-05-10T01:01:45;10.40;73.90
6956;DHT22;50345;51.136;16.886;2023-05-10T01:04:13;10.40;75.80
6956;DHT22;50345;51.136;16.886;2023-05-10T01:06:40;10.40;78.40
6956;DHT22;50345;51.136;16.886;2023-05-10T01:09:05;10.30;80.70
6956;DHT22;50345;51.136;16.886;2023-05-10T01:11:33;10.30;83.30
6956;DHT22;50345;51.136;16.886;2023-05-10T01:13:59;10.20;86.40
6956;DHT22;50345;51.136;16.886;2023-05-10T01:16:26;10.20;89.20
6956;DHT22;50345;51.136;16.886;2023-05-10T01:18:52;10.10;90.70
6956;DHT22;50345;51.136;16.886;2023-05-10T01:21:43;10.10;92.00
6956;DHT22;50345;51.136;16.886;2023-05-10T01:30:39;10.00;95.10
6956;DHT22;50345;51.136;16.886;2023-05-10T01:33:33;10.00;95.70
6956;DHT22;50345;51.136;16.886;2023-05-10T01:38:43;9.90;98.70
6956;DHT22;50345;51.136;16.886;2023-05-10T01:46:53;9.80;99.90
6956;DHT22;50345;51.136;16.886;2023-05-10T01:49:29;9.80;99.90
6956;DHT22;50345;51.136;16.886;2023-05-10T01:52:04;9.80;99.90
6956;DHT22;50345;51.136;16.886;2023-05-10T01:54:33;9.70;99.90
6956;DHT22;50345;51.136;16.886;2023-05-10T01:57:03;9.70;99.90
6956;DHT22;50345;51.136;16.886;2023-05-10T01:59:33;9.70;99.90
6956;DHT22;50345;51.136;16.886;2023-05-10T02:02:02;9.60;99.90
6956;DHT22;50345;51.136;16.886;2023-05-10T02:04:29;9.60;99.90
6956;DHT22;50345;51.136;16.886;2023-05-10T02:06:56;9.60;99.90
6956;DHT22;50345;51.136;16.886;2023-05-10T02:09:23;9.50;99.90
6956;DHT22;50345;51.136;16.886;2023-05-10T02:11:51;9.50;99.90
6956;DHT22;50345;51.136;16.886;2023-05-10T02:14:18;9.40;99.90
6956;DHT22;50345;51.136;16.886;2023-05-10T02:16:45;9.50;99.90
6956;DHT22;50345;51.136;16.886;2023-05-10T02:19:12;9.40;99.90
6956;DHT22;50345;51.136;16.886;2023-05-10T02:21:40;9.40;99.90
6956;DHT22;50345;51.136;16.886;2023-05-10T02:24:07;9.40;99.90
6956;DHT22;50345;51.136;16.886;2023-05-10T02:26:35;9.40;99.90
6956;DHT22;50345;51.136;16.886;2023-05-10T02:29:02;9.40;99.90
6956;DHT22;50345;51.136;16.886;2023-05-10T02:31:30;9.40;99.90
6956;DHT22;50345;51.136;16.886;2023-05-10T02:33:57;9.40;99.90
6956;DHT22;50345;51.136;16.886;2023-05-10T02:36:25;9.40;99.90
6956;DHT22;50345;51.136;16.886;2023-05-10T02:38:53;9.30;99.90
6956;DHT22;50345;51.136;16.886;2023-05-10T02:41:20;9.30;99.90
6956;DHT22;50345;51.136;16.886;2023-05-10T02:43:50;9.30;99.90
6956;DHT22;50345;51.136;16.886;2023-05-10T02:46:16;9.30;99.90
6956;DHT22;50345;51.136;16.886;2023-05-10T02:48:41;9.30;99.90
6956;DHT22;50345;51.136;16.886;2023-05-10T02:51:08;9.20;99.90
6956;DHT22;50345;51.136;16.886;2023-05-10T02:53:36;9.20;99.90
6956;DHT22;50345;51.136;16.886;2023-05-10T02:56:05;9.20;99.90
6956;DHT22;50345;51.136;16.886;2023-05-10T02:58:34;9.20;99.90
6956;DHT22;50345;51.136;16.886;2023-05-10T03:01:00;9.20;99.90
6956;DHT22;50345;51.136;16.886;2023-05-10T03:03:26;9.10;99.90
6956;DHT22;50345;51.136;16.886;2023-05-10T03:05:51;9.10;99.90
6956;DHT22;50345;51.136;16.886;2023-05-10T03:08:21;9.10;99.90
6956;DHT22;50345;51.136;16.886;2023-05-10T03:14:08;9.00;99.90
6956;DHT22;50345;51.136;16.886;2023-05-10T03:19:20;9.00;99.90
6956;DHT22;50345;51.136;16.886;2023-05-10T03:21:50;9.00;99.90
6956;DHT22;50345;51.136;16.886;2023-05-10T03:24:20;9.00;99.90
6956;DHT22;50345;51.136;16.886;2023-05-10T03:26:46;9.00;99.90
6956;DHT22;50345;51.136;16.886;2023-05-10T03:29:13;8.90;99.90
6956;DHT22;50345;51.136;16.886;2023-05-10T03:31:39;8.90;99.90
6956;DHT22;50345;51.136;16.886;2023-05-10T03:34:05;8.90;99.90
6956;DHT22;50345;51.136;16.886;2023-05-10T03:36:31;8.90;99.90
6956;DHT22;50345;51.136;16.886;2023-05-10T03:38:57;8.90;99.90
6956;DHT22;50345;51.136;16.886;2023-05-10T03:41:22;8.90;99.90
6956;DHT22;50345;51.136;16.886;2023-05-10T03:43:48;8.90;99.90
6956;DHT22;50345;51.136;16.886;2023-05-10T03:46:13;9.00;99.90
6956;DHT22;50345;51.136;16.886;2023-05-10T03:48:39;9.00;99.90
6956;DHT22;50345;51.136;16.886;2023-05-10T03:51:04;9.00;99.90
6956;DHT22;50345;51.136;16.886;2023-05-10T03:53:30;9.00;99.90
6956;DHT22;50345;51.136;16.886;2023-05-10T03:55:56;9.00;99.90
6956;DHT22;50345;51.136;16.886;2023-05-10T03:58:21;9.10;99.90
6956;DHT22;50345;51.136;16.886;2023-05-10T04:00:47;9.10;99.90
6956;DHT22;50345;51.136;16.886;2023-05-10T04:03:13;9.20;99.90
6956;DHT22;50345;51.136;16.886;2023-05-10T04:05:39;9.20;99.90
6956;DHT22;50345;51.136;16.886;2023-05-10T04:08:05;9.20;99.90
6956;DHT22;50345;51.136;16.886;2023-05-10T04:10:30;9.20;99.90
6956;DHT22;50345;51.136;16.886;2023-05-10T04:12:56;9.20;99.90
6956;DHT22;50345;51.136;16.886;2023-05-10T04:15:22;9.20;99.90
6956;DHT22;50345;51.136;16.886;2023-05-10T04:17:48;9.20;99.90
6956;DHT22;50345;51.136;16.886;2023-05-10T04:20:14;9.20;99.90
6956;DHT22;50345;51.136;16.886;2023-05-10T04:22:39;9.20;99.90
6956;DHT22;50345;51.136;16.886;2023-05-10T04:25:05;9.20;99.90
6956;DHT22;50345;51.136;16.886;2023-05-10T04:27:31;9.30;99.90
6956;DHT22;50345;51.136;16.886;2023-05-10T04:29:57;9.30;99.90
6956;DHT22;50345;51.136;16.886;2023-05-10T04:32:23;9.30;99.90
6956;DHT22;50345;51.136;16.886;2023-05-10T04:34:49;9.40;99.90
6956;DHT22;50345;51.136;16.886;2023-05-10T04:37:16;9.40;99.90
6956;DHT22;50345;51.136;16.886;2023-05-10T04:39:42;9.50;99.90
6956;DHT22;50345;51.136;16.886;2023-05-10T04:42:07;9.60;99.90
6956;DHT22;50345;51.136;16.886;2023-05-10T04:44:33;9.60;99.90
6956;DHT22;50345;51.136;16.886;2023-05-10T04:46:59;9.60;99.90
6956;DHT22;50345;51.136;16.886;2023-05-10T04:49:24;9.70;99.90
6956;DHT22;50345;51.136;16.886;2023-05-10T04:51:50;9.70;99.90
6956;DHT22;50345;51.136;16.886;2023-05-10T04:54:16;9.80;99.90
6956;DHT22;50345;51.136;16.886;2023-05-10T04:56:41;9.80;99.90
6956;DHT22;50345;51.136;16.886;2023-05-10T04:59:07;9.90;99.90
6956;DHT22;50345;51.136;16.886;2023-05-10T05:01:33;10.00;99.90
6956;DHT22;50345;51.136;16.886;2023-05-10T05:03:58;10.00;99.90
6956;DHT22;50345;51.136;16.886;2023-05-10T05:06:24;10.00;99.90
6956;DHT22;50345;51.136;16.886;2023-05-10T05:08:50;10.10;99.90
6956;DHT22;50345;51.136;16.886;2023-05-10T05:11:17;10.10;99.90
6956;DHT22;50345;51.136;16.886;2023-05-10T05:13:43;10.10;99.90
6956;DHT22;50345;51.136;16.886;2023-05-10T05:16:08;10.20;99.90
6956;DHT22;50345;51.136;16.886;2023-05-10T05:18:34;10.20;99.90
6956;DHT22;50345;51.136;16.886;2023-05-10T05:21:00;10.30;99.90
6956;DHT22;50345;51.136;16.886;2023-05-10T05:23:26;10.30;99.90
6956;DHT22;50345;51.136;16.886;2023-05-10T05:25:52;10.40;99.90
6956;DHT22;50345;51.136;16.886;2023-05-10T05:28:19;10.40;99.90
6956;DHT22;50345;51.136;16.886;2023-05-10T05:30:45;10.50;99.90
6956;DHT22;50345;51.136;16.886;2023-05-10T05:33:10;10.50;99.90
6956;DHT22;50345;51.136;16.886;2023-05-10T05:35:36;10.60;99.90
6956;DHT22;50345;51.136;16.886;2023-05-10T05:38:02;10.60;99.90
6956;DHT22;50345;51.136;16.886;2023-05-10T05:40:28;10.70;99.90
6956;DHT22;50345;51.136;16.886;2023-05-10T05:42:53;10.80;99.90
6956;DHT22;50345;51.136;16.886;2023-05-10T05:45:19;10.90;99.90
6956;DHT22;50345;51.136;16.886;2023-05-10T05:47:44;10.90;99.90
6956;DHT22;50345;51.136;16.886;2023-05-10T05:50:10;11.00;99.90
6956;DHT22;50345;51.136;16.886;2023-05-10T05:52:36;11.10;99.90
6956;DHT22;50345;51.136;16.886;2023-05-10T05:55:01;11.10;99.90
6956;DHT22;50345;51.136;16.886;2023-05-10T05:57:27;11.20;99.90
6956;DHT22;50345;51.136;16.886;2023-05-10T05:59:52;11.30;99.90
6956;DHT22;50345;51.136;16.886;2023-05-10T06:02:18;11.30;99.90
6956;DHT22;50345;51.136;16.886;2023-05-10T06:04:43;11.40;99.90
6956;DHT22;50345;51.136;16.886;2023-05-10T06:07:09;11.50;99.90
6956;DHT22;50345;51.136;16.886;2023-05-10T06:09:35;11.50;99.90
6956;DHT22;50345;51.136;16.886;2023-05-10T06:12:00;11.60;99.90
6956;DHT22;50345;51.136;16.886;2023-05-10T06:14:26;11.70;99.80
6956;DHT22;50345;51.136;16.886;2023-05-10T06:16:52;11.70;99.90
6956;DHT22;50345;51.136;16.886;2023-05-10T06:19:18;11.80;99.00
6956;DHT22;50345;51.136;16.886;2023-05-10T06:24:09;11.90;98.40
6956;DHT22;50345;51.136;16.886;2023-05-10T06:26:35;12.00;98.50
6956;DHT22;50345;51.136;16.886;2023-05-10T06:29:01;12.10;99.50
6956;DHT22;50345;51.136;16.886;2023-05-10T06:31:26;12.20;97.10
6956;DHT22;50345;51.136;16.886;2023-05-10T06:33:52;12.20;96.90
6956;DHT22;50345;51.136;16.886;2023-05-10T06:36:18;12.40;97.00
6956;DHT22;50345;51.136;16.886;2023-05-10T06:41:09;12.60;96.20
6956;DHT22;50345;51.136;16.886;2023-05-10T06:43:35;12.70;95.90
6956;DHT22;50345;51.136;16.886;2023-05-10T06:46:02;12.80;95.20
6956;DHT22;50345;51.136;16.886;2023-05-10T06:48:27;13.00;93.50
6956;DHT22;50345;51.136;16.886;2023-05-10T06:50:53;13.00;94.00
6956;DHT22;50345;51.136;16.886;2023-05-10T06:53:19;13.10;93.80
6956;DHT22;50345;51.136;16.886;2023-05-10T06:55:44;13.10;94.00
6956;DHT22;50345;51.136;16.886;2023-05-10T06:58:10;13.30;92.70
6956;DHT22;50345;51.136;16.886;2023-05-10T07:00:36;13.40;92.70
6956;DHT22;50345;51.136;16.886;2023-05-10T07:03:05;13.40;93.00
6956;DHT22;50345;51.136;16.886;2023-05-10T07:05:31;13.60;92.30
6956;DHT22;50345;51.136;16.886;2023-05-10T07:07:57;13.70;90.50
6956;DHT22;50345;51.136;16.886;2023-05-10T07:10:22;13.80;90.90
6956;DHT22;50345;51.136;16.886;2023-05-10T07:12:48;13.80;90.50
6956;DHT22;50345;51.136;16.886;2023-05-10T07:15:13;14.00;90.50
6956;DHT22;50345;51.136;16.886;2023-05-10T07:17:41;14.10;90.20
6956;DHT22;50345;51.136;16.886;2023-05-10T07:20:07;14.30;89.40
6956;DHT22;50345;51.136;16.886;2023-05-10T07:22:33;14.30;89.60
6956;DHT22;50345;51.136;16.886;2023-05-10T07:24:58;14.40;87.30
6956;DHT22;50345;51.136;16.886;2023-05-10T07:27:24;14.50;84.70
6956;DHT22;50345;51.136;16.886;2023-05-10T07:29:49;14.50;86.10
6956;DHT22;50345;51.136;16.886;2023-05-10T07:32:15;14.60;84.50
6956;DHT22;50345;51.136;16.886;2023-05-10T07:34:41;14.70;85.30
6956;DHT22;50345;51.136;16.886;2023-05-10T07:37:06;14.80;84.10
6956;DHT22;50345;51.136;16.886;2023-05-10T07:39:32;14.90;83.70
6956;DHT22;50345;51.136;16.886;2023-05-10T07:41:58;15.00;83.70
6956;DHT22;50345;51.136;16.886;2023-05-10T07:44:24;15.10;83.60
6956;DHT22;50345;51.136;16.886;2023-05-10T07:49:16;15.40;81.30
6956;DHT22;50345;51.136;16.886;2023-05-10T07:51:41;15.50;80.40
6956;DHT22;50345;51.136;16.886;2023-05-10T07:54:07;15.60;81.70
6956;DHT22;50345;51.136;16.886;2023-05-10T07:56:33;15.60;79.60
6956;DHT22;50345;51.136;16.886;2023-05-10T07:59:00;15.80;79.00
6956;DHT22;50345;51.136;16.886;2023-05-10T08:01:26;15.80;79.60
6956;DHT22;50345;51.136;16.886;2023-05-10T08:03:55;16.00;79.00
6956;DHT22;50345;51.136;16.886;2023-05-10T08:06:20;16.00;78.70
6956;DHT22;50345;51.136;16.886;2023-05-10T08:08:47;16.20;77.60
6956;DHT22;50345;51.136;16.886;2023-05-10T08:11:16;16.40;75.30
6956;DHT22;50345;51.136;16.886;2023-05-10T08:13:43;16.40;75.50
6956;DHT22;50345;51.136;16.886;2023-05-10T08:16:08;16.60;74.10
6956;DHT22;50345;51.136;16.886;2023-05-10T08:18:34;16.70;74.60
6956;DHT22;50345;51.136;16.886;2023-05-10T08:20:59;16.90;72.70
6956;DHT22;50345;51.136;16.886;2023-05-10T08:23:25;16.90;72.10
6956;DHT22;50345;51.136;16.886;2023-05-10T08:25:51;17.00;71.80
6956;DHT22;50345;51.136;16.886;2023-05-10T08:28:16;17.00;70.60
6956;DHT22;50345;51.136;16.886;2023-05-10T08:30:42;17.20;71.00
6956;DHT22;50345;51.136;16.886;2023-05-10T08:33:08;17.30;70.70
6956;DHT22;50345;51.136;16.886;2023-05-10T08:35:33;17.60;69.80
6956;DHT22;50345;51.136;16.886;2023-05-10T08:38:00;17.80;69.20
6956;DHT22;50345;51.136;16.886;2023-05-10T08:40:26;18.10;68.60
6956;DHT22;50345;51.136;16.886;2023-05-10T08:43:05;18.30;66.90
6956;DHT22;50345;51.136;16.886;2023-05-10T08:45:33;18.50;64.60
6956;DHT22;50345;51.136;16.886;2023-05-10T08:48:01;18.70;63.70
6956;DHT22;50345;51.136;16.886;2023-05-10T08:50:27;18.70;61.70
6956;DHT22;50345;51.136;16.886;2023-05-10T08:52:59;18.90;59.30
6956;DHT22;50345;51.136;16.886;2023-05-10T08:55:25;19.30;59.30
6956;DHT22;50345;51.136;16.886;2023-05-10T08:57:51;19.50;59.50
6956;DHT22;50345;51.136;16.886;2023-05-10T09:00:17;20.30;57.90
6956;DHT22;50345;51.136;16.886;2023-05-10T09:02:43;21.90;53.70
6956;DHT22;50345;51.136;16.886;2023-05-10T09:05:11;22.80;50.30
6956;DHT22;50345;51.136;16.886;2023-05-10T09:07:37;23.10;49.80
6956;DHT22;50345;51.136;16.886;2023-05-10T09:10:04;24.30;47.50
6956;DHT22;50345;51.136;16.886;2023-05-10T09:12:30;26.40;41.90
6956;DHT22;50345;51.136;16.886;2023-05-10T09:14:56;26.40;42.60
6956;DHT22;50345;51.136;16.886;2023-05-10T09:17:24;27.20;41.40
6956;DHT22;50345;51.136;16.886;2023-05-10T09:19:49;27.70;39.70
6956;DHT22;50345;51.136;16.886;2023-05-10T09:22:15;29.20;36.40
6956;DHT22;50345;51.136;16.886;2023-05-10T09:24:42;29.80;35.10
6956;DHT22;50345;51.136;16.886;2023-05-10T09:27:10;30.10;35.40
6956;DHT22;50345;51.136;16.886;2023-05-10T09:29:43;30.50;34.80
6956;DHT22;50345;51.136;16.886;2023-05-10T09:32:08;31.00;34.20
6956;DHT22;50345;51.136;16.886;2023-05-10T09:34:34;31.70;32.60
6956;DHT22;50345;51.136;16.886;2023-05-10T09:37:05;32.40;32.10
6956;DHT22;50345;51.136;16.886;2023-05-10T09:39:36;33.50;29.20
6956;DHT22;50345;51.136;16.886;2023-05-10T09:42:03;33.90;28.50
6956;DHT22;50345;51.136;16.886;2023-05-10T09:44:30;34.00;28.40
6956;DHT22;50345;51.136;16.886;2023-05-10T09:46:55;34.40;28.80
6956;DHT22;50345;51.136;16.886;2023-05-10T09:49:22;34.90;27.70
6956;DHT22;50345;51.136;16.886;2023-05-10T09:51:57;34.80;28.40
6956;DHT22;50345;51.136;16.886;2023-05-10T09:54:24;34.70;27.90
6956;DHT22;50345;51.136;16.886;2023-05-10T09:56:50;34.00;27.90
6956;DHT22;50345;51.136;16.886;2023-05-10T09:59:15;34.00;28.40
6956;DHT22;50345;51.136;16.886;2023-05-10T10:01:43;34.70;28.60
6956;DHT22;50345;51.136;16.886;2023-05-10T10:04:14;35.10;27.50
6956;DHT22;50345;51.136;16.886;2023-05-10T10:06:40;35.70;27.20
6956;DHT22;50345;51.136;16.886;2023-05-10T10:09:07;36.10;27.10
6956;DHT22;50345;51.136;16.886;2023-05-10T10:11:37;35.70;26.30
6956;DHT22;50345;51.136;16.886;2023-05-10T10:14:03;35.00;26.60
6956;DHT22;50345;51.136;16.886;2023-05-10T10:16:29;34.70;27.70
6956;DHT22;50345;51.136;16.886;2023-05-10T10:18:55;34.60;27.30
6956;DHT22;50345;51.136;16.886;2023-05-10T10:21:22;33.70;27.10
6956;DHT22;50345;51.136;16.886;2023-05-10T10:23:48;32.40;28.40
6956;DHT22;50345;51.136;16.886;2023-05-10T10:26:14;32.20;29.10
6956;DHT22;50345;51.136;16.886;2023-05-10T10:29:00;31.90;29.40
6956;DHT22;50345;51.136;16.886;2023-05-10T10:31:41;31.50;29.50
6956;DHT22;50345;51.136;16.886;2023-05-10T10:34:10;31.60;29.80
6956;DHT22;50345;51.136;16.886;2023-05-10T10:36:45;31.90;29.90
6956;DHT22;50345;51.136;16.886;2023-05-10T10:39:11;32.00;29.40
6956;DHT22;50345;51.136;16.886;2023-05-10T10:41:39;31.80;29.80
6956;DHT22;50345;51.136;16.886;2023-05-10T10:44:32;32.60;29.20
6956;DHT22;50345;51.136;16.886;2023-05-10T10:49:42;35.00;26.90
6956;DHT22;50345;51.136;16.886;2023-05-10T10:55:09;35.60;26.30
6956;DHT22;50345;51.136;16.886;2023-05-10T11:03:16;35.10;26.20
6956;DHT22;50345;51.136;16.886;2023-05-10T11:05:48;34.90;26.30
6956;DHT22;50345;51.136;16.886;2023-05-10T11:13:41;34.40;27.10
6956;DHT22;50345;51.136;16.886;2023-05-10T11:19:02;34.90;27.00
6956;DHT22;50345;51.136;16.886;2023-05-10T11:21:31;34.40;26.80
6956;DHT22;50345;51.136;16.886;2023-05-10T11:23:59;33.40;28.00
6956;DHT22;50345;51.136;16.886;2023-05-10T11:26:33;33.50;27.20
6956;DHT22;50345;51.136;16.886;2023-05-10T11:28:59;32.70;27.50
6956;DHT22;50345;51.136;16.886;2023-05-10T11:31:27;32.20;28.10
6956;DHT22;50345;51.136;16.886;2023-05-10T11:33:55;32.10;28.70
6956;DHT22;50345;51.136;16.886;2023-05-10T11:36:25;32.10;29.00
6956;DHT22;50345;51.136;16.886;2023-05-10T11:38:51;32.30;28.90
6956;DHT22;50345;51.136;16.886;2023-05-10T11:41:18;32.20;28.50
6956;DHT22;50345;51.136;16.886;2023-05-10T11:43:46;31.60;28.70
6956;DHT22;50345;51.136;16.886;2023-05-10T11:46:12;29.20;30.40
6956;DHT22;50345;51.136;16.886;2023-05-10T11:48:39;29.00;31.00
6956;DHT22;50345;51.136;16.886;2023-05-10T11:51:07;28.00;32.10
6956;DHT22;50345;51.136;16.886;2023-05-10T11:53:33;27.30;33.80
6956;DHT22;50345;51.136;16.886;2023-05-10T11:56:11;28.10;33.60
6956;DHT22;50345;51.136;16.886;2023-05-10T11:58:37;28.10;31.80
6956;DHT22;50345;51.136;16.886;2023-05-10T12:01:05;29.20;30.40
6956;DHT22;50345;51.136;16.886;2023-05-10T12:03:32;29.60;31.10
6956;DHT22;50345;51.136;16.886;2023-05-10T12:05:58;29.40;30.00
6956;DHT22;50345;51.136;16.886;2023-05-10T12:08:26;28.70;30.40
6956;DHT22;50345;51.136;16.886;2023-05-10T12:11:02;28.30;31.90
6956;DHT22;50345;51.136;16.886;2023-05-10T12:13:29;28.20;31.90
6956;DHT22;50345;51.136;16.886;2023-05-10T12:15:57;29.60;30.00
6956;DHT22;50345;51.136;16.886;2023-05-10T12:18:23;29.90;30.70
6956;DHT22;50345;51.136;16.886;2023-05-10T12:20:52;30.00;30.20
6956;DHT22;50345;51.136;16.886;2023-05-10T12:23:21;30.00;30.60
6956;DHT22;50345;51.136;16.886;2023-05-10T12:25:47;30.10;30.90
6956;DHT22;50345;51.136;16.886;2023-05-10T12:28:12;30.30;30.30
6956;DHT22;50345;51.136;16.886;2023-05-10T12:30:39;30.00;30.30
6956;DHT22;50345;51.136;16.886;2023-05-10T12:33:10;29.20;30.40
6956;DHT22;50345;51.136;16.886;2023-05-10T12:35:46;29.10;31.20
6956;DHT22;50345;51.136;16.886;2023-05-10T12:38:29;29.50;31.10
6956;DHT22;50345;51.136;16.886;2023-05-10T12:41:00;30.30;30.50
6956;DHT22;50345;51.136;16.886;2023-05-10T12:43:26;30.90;30.00
6956;DHT22;50345;51.136;16.886;2023-05-10T12:45:52;30.30;29.40
6956;DHT22;50345;51.136;16.886;2023-05-10T12:48:18;29.20;30.40
6956;DHT22;50345;51.136;16.886;2023-05-10T12:50:43;28.30;31.40
6956;DHT22;50345;51.136;16.886;2023-05-10T12:53:09;28.70;31.50
6956;DHT22;50345;51.136;16.886;2023-05-10T12:55:34;28.90;31.40
6956;DHT22;50345;51.136;16.886;2023-05-10T12:58:00;29.20;31.00
6956;DHT22;50345;51.136;16.886;2023-05-10T13:00:25;28.40;31.50
6956;DHT22;50345;51.136;16.886;2023-05-10T13:02:51;27.90;32.40
6956;DHT22;50345;51.136;16.886;2023-05-10T13:05:17;28.30;32.40
6956;DHT22;50345;51.136;16.886;2023-05-10T13:07:43;28.90;31.70
6956;DHT22;50345;51.136;16.886;2023-05-10T13:10:09;28.90;31.40
6956;DHT22;50345;51.136;16.886;2023-05-10T13:12:35;28.90;31.20
6956;DHT22;50345;51.136;16.886;2023-05-10T13:15:01;28.90;31.00
6956;DHT22;50345;51.136;16.886;2023-05-10T13:17:28;28.30;31.40
6956;DHT22;50345;51.136;16.886;2023-05-10T13:19:54;27.70;32.20
6956;DHT22;50345;51.136;16.886;2023-05-10T13:22:20;27.90;32.70
6956;DHT22;50345;51.136;16.886;2023-05-10T13:24:45;28.00;32.80
6956;DHT22;50345;51.136;16.886;2023-05-10T13:27:11;27.40;32.90
6956;DHT22;50345;51.136;16.886;2023-05-10T13:29:36;27.40;34.00
6956;DHT22;50345;51.136;16.886;2023-05-10T13:32:02;27.20;33.30
6956;DHT22;50345;51.136;16.886;2023-05-10T13:34:28;27.10;33.50
6956;DHT22;50345;51.136;16.886;2023-05-10T13:36:53;26.80;34.00
6956;DHT22;50345;51.136;16.886;2023-05-10T13:39:21;26.80;34.60
6956;DHT22;50345;51.136;16.886;2023-05-10T13:41:46;27.50;33.70
6956;DHT22;50345;51.136;16.886;2023-05-10T13:44:13;28.00;32.80
6956;DHT22;50345;51.136;16.886;2023-05-10T13:46:40;27.60;32.60
6956;DHT22;50345;51.136;16.886;2023-05-10T13:49:06;27.40;33.10
6956;DHT22;50345;51.136;16.886;2023-05-10T13:51:31;27.90;32.60
6956;DHT22;50345;51.136;16.886;2023-05-10T13:53:58;28.10;32.50
6956;DHT22;50345;51.136;16.886;2023-05-10T13:56:23;28.00;32.50
6956;DHT22;50345;51.136;16.886;2023-05-10T13:58:49;27.50;33.10
6956;DHT22;50345;51.136;16.886;2023-05-10T14:01:14;27.10;33.60
6956;DHT22;50345;51.136;16.886;2023-05-10T14:06:06;25.80;33.60
6956;DHT22;50345;51.136;16.886;2023-05-10T14:08:33;25.80;34.40
6956;DHT22;50345;51.136;16.886;2023-05-10T14:10:59;25.40;35.30
6956;DHT22;50345;51.136;16.886;2023-05-10T14:13:24;25.70;35.60
6956;DHT22;50345;51.136;16.886;2023-05-10T14:15:50;25.80;35.30
6956;DHT22;50345;51.136;16.886;2023-05-10T14:18:16;25.50;35.50
6956;DHT22;50345;51.136;16.886;2023-05-10T14:20:42;25.60;35.70
6956;DHT22;50345;51.136;16.886;2023-05-10T14:23:07;25.70;35.50
6956;DHT22;50345;51.136;16.886;2023-05-10T14:25:33;25.40;35.40
6956;DHT22;50345;51.136;16.886;2023-05-10T14:27:59;25.10;35.30
6956;DHT22;50345;51.136;16.886;2023-05-10T14:30:25;24.90;35.90
6956;DHT22;50345;51.136;16.886;2023-05-10T14:32:51;24.90;36.30
6956;DHT22;50345;51.136;16.886;2023-05-10T14:35:19;24.80;35.80
6956;DHT22;50345;51.136;16.886;2023-05-10T14:37:44;24.70;36.10
6956;DHT22;50345;51.136;16.886;2023-05-10T14:40:11;24.80;36.20
6956;DHT22;50345;51.136;16.886;2023-05-10T14:42:37;24.60;36.60
6956;DHT22;50345;51.136;16.886;2023-05-10T14:45:03;24.60;36.60
6956;DHT22;50345;51.136;16.886;2023-05-10T14:47:29;24.70;36.50
6956;DHT22;50345;51.136;16.886;2023-05-10T14:49:54;24.50;35.70
6956;DHT22;50345;51.136;16.886;2023-05-10T14:52:20;24.50;36.20
6956;DHT22;50345;51.136;16.886;2023-05-10T14:54:45;24.30;37.30
6956;DHT22;50345;51.136;16.886;2023-05-10T14:57:11;24.50;36.80
6956;DHT22;50345;51.136;16.886;2023-05-10T14:59:37;24.50;36.60
6956;DHT22;50345;51.136;16.886;2023-05-10T15:02:02;24.50;36.60
6956;DHT22;50345;51.136;16.886;2023-05-10T15:04:29;24.70;36.40
6956;DHT22;50345;51.136;16.886;2023-05-10T15:06:55;25.60;35.20
6956;DHT22;50345;51.136;16.886;2023-05-10T15:09:24;26.10;34.30
6956;DHT22;50345;51.136;16.886;2023-05-10T15:11:50;26.20;34.00
6956;DHT22;50345;51.136;16.886;2023-05-10T15:14:15;26.10;34.60
6956;DHT22;50345;51.136;16.886;2023-05-10T15:16:41;25.50;34.90
6956;DHT22;50345;51.136;16.886;2023-05-10T15:19:08;25.20;35.70
6956;DHT22;50345;51.136;16.886;2023-05-10T15:21:37;26.50;34.70
6956;DHT22;50345;51.136;16.886;2023-05-10T15:24:07;26.90;33.60
6956;DHT22;50345;51.136;16.886;2023-05-10T15:26:33;27.10;33.70
6956;DHT22;50345;51.136;16.886;2023-05-10T15:28:58;27.10;33.30
6956;DHT22;50345;51.136;16.886;2023-05-10T15:31:24;27.10;33.10
6956;DHT22;50345;51.136;16.886;2023-05-10T15:33:50;26.60;33.70
6956;DHT22;50345;51.136;16.886;2023-05-10T15:36:15;26.50;33.90
6956;DHT22;50345;51.136;16.886;2023-05-10T15:38:43;27.10;33.80
6956;DHT22;50345;51.136;16.886;2023-05-10T15:41:08;26.90;32.50
6956;DHT22;50345;51.136;16.886;2023-05-10T15:43:34;26.10;33.50
6956;DHT22;50345;51.136;16.886;2023-05-10T15:46:00;25.50;34.70
6956;DHT22;50345;51.136;16.886;2023-05-10T15:48:26;25.70;35.20
6956;DHT22;50345;51.136;16.886;2023-05-10T15:50:52;26.90;33.20
6956;DHT22;50345;51.136;16.886;2023-05-10T15:53:18;27.30;33.20
6956;DHT22;50345;51.136;16.886;2023-05-10T15:55:43;28.40;30.90
6956;DHT22;50345;51.136;16.886;2023-05-10T15:58:09;28.60;31.00
6956;DHT22;50345;51.136;16.886;2023-05-10T16:00:35;26.70;31.70
6956;DHT22;50345;51.136;16.886;2023-05-10T16:03:01;26.50;32.20
6956;DHT22;50345;51.136;16.886;2023-05-10T16:05:26;25.70;34.00
6956;DHT22;50345;51.136;16.886;2023-05-10T16:07:56;24.80;35.00
6956;DHT22;50345;51.136;16.886;2023-05-10T16:10:21;24.20;35.90
6956;DHT22;50345;51.136;16.886;2023-05-10T16:12:47;23.90;36.70
6956;DHT22;50345;51.136;16.886;2023-05-10T16:15:13;23.80;37.20
6956;DHT22;50345;51.136;16.886;2023-05-10T16:17:38;23.40;37.60
6956;DHT22;50345;51.136;16.886;2023-05-10T16:20:05;23.20;37.70
6956;DHT22;50345;51.136;16.886;2023-05-10T16:22:31;23.30;38.60